Time;durP1;ratioP1;P1;durP2;ratioP2;P2;SDS_P1;SDS_P2;PMS_P1;PMS_P2;Temp;Humidity;BMP_temperature;BMP_pressure;BME280_temperature;BME280_humidity;BME280_pressure;Samples;Min_cycle;Max_cycle;Signal;HPM_P1;HPM_P2
2022/12/11 00:00:22;;;;;;;49.23;25.77;;;;;;;;;;4996417;28;20435;-78
2022/12/11 00:02:48;;;;;;;42.33;24.07;;;;;;;;;;4997180;28;20438;-79
2022/12/11 00:05:14;;;;;;;47.03;25.73;;;;;;;;;;4996081;28;20422;-79
2022/12/11 00:07:41;;;;;;;46.37;24.97;;;;;;;;;;4995621;28;20470;-79
2022/12/11 00:10:08;;;;;;;41.23;23.17;;;;;;;;;;4996732;28;20899;-79
2022/12/11 00:12:34;;;;;;;36.93;21.13;;;;;;;;;;4997956;28;20952;-79
2022/12/11 00:15:00;;;;;;;38.23;21.70;;;;;;;;;;4995500;28;20970;-79
2022/12/11 00:17:26;;;;;;;36.30;21.33;;;;;;;;;;5005394;28;20446;-78
2022/12/11 00:19:53;;;;;;;40.03;22.17;;;;;;;;;;5001346;28;20466;-80
2022/12/11 00:22:19;;;;;;;38.23;22.33;;;;;;;;;;4998687;28;20524;-80
2022/12/11 00:24:46;;;;;;;34.13;20.10;;;;;;;;;;4976704;28;20453;-80
2022/12/11 00:27:16;;;;;;;36.03;20.60;;;;;;;;;;4999972;28;21279;-80
2022/12/11 00:29:42;;;;;;;38.30;22.87;;;;;;;;;;4998509;28;20804;-79
2022/12/11 00:32:08;;;;;;;34.10;20.97;;;;;;;;;;4981552;28;20502;-80
2022/12/11 00:34:34;;;;;;;42.87;22.40;;;;;;;;;;5000220;28;20187;-79
2022/12/11 00:37:02;;;;;;;57.40;25.53;;;;;;;;;;5000163;28;20514;-79
2022/12/11 00:39:28;;;;;;;60.07;25.73;;;;;;;;;;4995979;28;20478;-80
2022/12/11 00:41:54;;;;;;;54.50;26.47;;;;;;;;;;5002302;28;20183;-80
2022/12/11 00:44:21;;;;;;;50.70;25.70;;;;;;;;;;4995772;28;20479;-79
2022/12/11 00:46:48;;;;;;;43.27;24.23;;;;;;;;;;4995625;28;20191;-79
2022/12/11 00:49:16;;;;;;;39.80;24.47;;;;;;;;;;5002191;28;20221;-79
2022/12/11 00:51:42;;;;;;;37.57;22.80;;;;;;;;;;4997699;28;20489;-80
2022/12/11 00:54:08;;;;;;;42.37;23.67;;;;;;;;;;4998985;28;20430;-80
2022/12/11 00:56:34;;;;;;;36.60;22.17;;;;;;;;;;4989026;28;20188;-79
2022/12/11 00:59:00;;;;;;;36.80;22.27;;;;;;;;;;4994998;28;20286;-80
2022/12/11 01:01:27;;;;;;;35.73;21.43;;;;;;;;;;4995956;28;20423;-80
2022/12/11 01:03:53;;;;;;;37.57;22.00;;;;;;;;;;4996074;28;20243;-79
2022/12/11 01:06:21;;;;;;;40.27;23.50;;;;;;;;;;4998358;28;20186;-80
2022/12/11 01:10:22;;;;;;;40.60;24.27;;;;;;;;;;5001304;28;20422;-79
2022/12/11 01:11:34;;;;;;;38.17;23.07;;;;;;;;;;4996273;28;20454;-79
2022/12/11 01:14:00;;;;;;;45.47;25.20;;;;;;;;;;4997043;28;21108;-79
2022/12/11 01:16:26;;;;;;;44.83;25.33;;;;;;;;;;4996999;28;20183;-80
2022/12/11 01:18:53;;;;;;;38.67;23.87;;;;;;;;;;4995170;28;20223;-80
2022/12/11 01:21:19;;;;;;;35.90;22.13;;;;;;;;;;4996159;28;20248;-80
2022/12/11 01:23:45;;;;;;;38.20;23.57;;;;;;;;;;4997297;28;20847;-80
2022/12/11 01:26:13;;;;;;;35.27;21.90;;;;;;;;;;4996977;28;20537;-79
2022/12/11 01:28:39;;;;;;;36.27;21.70;;;;;;;;;;4995966;28;20180;-79
2022/12/11 01:31:13;;;;;;;35.13;21.63;;;;;;;;;;4991806;28;20467;-79
2022/12/11 01:33:39;;;;;;;33.07;19.73;;;;;;;;;;5007687;28;20431;-81
2022/12/11 01:36:09;;;;;;;33.03;19.93;;;;;;;;;;4998744;28;20195;-81
2022/12/11 01:38:35;;;;;;;31.80;19.63;;;;;;;;;;5001067;28;20305;-81
2022/12/11 01:41:01;;;;;;;30.33;19.00;;;;;;;;;;5005777;28;20241;-81
2022/12/11 01:43:27;;;;;;;36.87;22.43;;;;;;;;;;4997976;28;20196;-81
2022/12/11 01:45:53;;;;;;;32.93;21.73;;;;;;;;;;4996159;28;20215;-80
2022/12/11 01:48:28;;;;;;;34.20;20.60;;;;;;;;;;5001431;28;20187;-81
2022/12/11 01:50:59;;;;;;;36.27;23.27;;;;;;;;;;4999632;28;20261;-81
2022/12/11 01:53:31;;;;;;;34.73;20.03;;;;;;;;;;4999151;28;20187;-81
2022/12/11 01:55:58;;;;;;;37.87;22.60;;;;;;;;;;4997239;28;20651;-81
2022/12/11 01:58:26;;;;;;;37.50;22.80;;;;;;;;;;4999599;28;20310;-81
2022/12/11 02:00:52;;;;;;;39.27;23.60;;;;;;;;;;4996473;28;20203;-81
2022/12/11 02:03:18;;;;;;;58.93;29.47;;;;;;;;;;5000067;28;20191;-81
2022/12/11 02:05:44;;;;;;;44.27;24.67;;;;;;;;;;5001174;28;20442;-81
2022/12/11 02:08:11;;;;;;;35.87;22.53;;;;;;;;;;5002620;28;20188;-81
2022/12/11 02:10:43;;;;;;;37.47;22.57;;;;;;;;;;4997092;28;20246;-79
2022/12/11 02:13:14;;;;;;;38.70;23.73;;;;;;;;;;5007133;28;20228;-81
2022/12/11 02:15:48;;;;;;;35.73;21.73;;;;;;;;;;4980042;28;20461;-79
2022/12/11 02:18:26;;;;;;;40.63;22.67;;;;;;;;;;4999468;28;20849;-79
2022/12/11 02:21:06;;;;;;;40.30;22.00;;;;;;;;;;5001901;28;21053;-79
2022/12/11 02:23:43;;;;;;;43.07;23.57;;;;;;;;;;5000004;28;20259;-79
2022/12/11 02:26:12;;;;;;;43.03;24.57;;;;;;;;;;5007336;28;20620;-79
2022/12/11 02:28:39;;;;;;;39.17;22.87;;;;;;;;;;4999667;28;20175;-79
2022/12/11 02:31:27;;;;;;;37.57;22.67;;;;;;;;;;4989022;28;20883;-79
2022/12/11 02:34:13;;;;;;;38.70;22.57;;;;;;;;;;5000127;28;20191;-79
2022/12/11 02:36:41;;;;;;;43.93;25.33;;;;;;;;;;4999300;28;20175;-79
2022/12/11 02:39:09;;;;;;;36.87;20.80;;;;;;;;;;4998199;28;20222;-79
2022/12/11 02:41:36;;;;;;;43.33;24.97;;;;;;;;;;4996681;28;20484;-79
2022/12/11 02:44:04;;;;;;;38.37;23.20;;;;;;;;;;5000509;28;20596;-79
2022/12/11 02:46:31;;;;;;;42.80;22.63;;;;;;;;;;5007767;28;20168;-79
2022/12/11 02:48:57;;;;;;;37.07;22.20;;;;;;;;;;5002470;28;20732;-79
2022/12/11 02:51:26;;;;;;;40.03;24.70;;;;;;;;;;5007006;28;20456;-79
2022/12/11 02:53:54;;;;;;;36.30;21.77;;;;;;;;;;4999540;28;20581;-79
2022/12/11 02:56:23;;;;;;;32.63;20.70;;;;;;;;;;4998726;28;20287;-79
2022/12/11 02:58:53;;;;;;;33.53;21.77;;;;;;;;;;4999188;28;20466;-79
2022/12/11 03:01:19;;;;;;;34.60;20.60;;;;;;;;;;4997477;28;20422;-79
2022/12/11 03:03:45;;;;;;;36.43;22.23;;;;;;;;;;5002947;28;20432;-79
2022/12/11 03:06:14;;;;;;;42.97;24.03;;;;;;;;;;5005849;28;20532;-79
2022/12/11 03:08:40;;;;;;;35.07;20.53;;;;;;;;;;4998288;28;20442;-80
2022/12/11 03:11:10;;;;;;;36.27;22.50;;;;;;;;;;4998353;28;20666;-79
2022/12/11 03:13:37;;;;;;;36.40;22.23;;;;;;;;;;4998877;28;20240;-79
2022/12/11 03:16:04;;;;;;;32.50;21.23;;;;;;;;;;4981807;28;20694;-79
2022/12/11 03:18:40;;;;;;;36.67;23.23;;;;;;;;;;5000276;28;20953;-80
2022/12/11 03:21:16;;;;;;;33.97;21.53;;;;;;;;;;4984350;28;20655;-79
2022/12/11 03:23:45;;;;;;;32.93;20.60;;;;;;;;;;5001473;28;20187;-80
2022/12/11 03:26:13;;;;;;;34.40;21.27;;;;;;;;;;4990508;28;20191;-79
2022/12/11 03:28:47;;;;;;;36.33;22.07;;;;;;;;;;4998965;28;20992;-80
2022/12/11 03:31:17;;;;;;;33.47;21.57;;;;;;;;;;5005128;28;20202;-79
2022/12/11 03:33:46;;;;;;;35.70;22.17;;;;;;;;;;4998602;28;20259;-80
2022/12/11 03:36:17;;;;;;;36.80;21.87;;;;;;;;;;4999555;28;20226;-79
2022/12/11 03:38:48;;;;;;;32.73;20.80;;;;;;;;;;4996769;28;20218;-79
2022/12/11 03:41:15;;;;;;;36.10;22.77;;;;;;;;;;4997972;28;20187;-79
2022/12/11 03:43:41;;;;;;;37.43;23.87;;;;;;;;;;4999134;28;20677;-79
2022/12/11 03:46:08;;;;;;;36.27;21.90;;;;;;;;;;4999717;28;20557;-80
2022/12/11 03:48:36;;;;;;;32.70;20.50;;;;;;;;;;4998412;28;20180;-79
2022/12/11 03:51:04;;;;;;;37.40;23.27;;;;;;;;;;5001810;28;20246;-79
2022/12/11 03:53:32;;;;;;;34.67;22.23;;;;;;;;;;4989915;28;20215;-79
2022/12/11 03:56:00;;;;;;;36.63;23.00;;;;;;;;;;4999781;28;20191;-80
2022/12/11 03:58:26;;;;;;;36.20;22.70;;;;;;;;;;5001137;28;20184;-79
2022/12/11 04:00:52;;;;;;;38.07;24.03;;;;;;;;;;4998620;28;20272;-79
2022/12/11 04:03:18;;;;;;;38.17;23.70;;;;;;;;;;4999274;28;20192;-79
2022/12/11 04:05:46;;;;;;;39.90;24.20;;;;;;;;;;4999270;28;20206;-80
2022/12/11 04:08:12;;;;;;;37.53;22.73;;;;;;;;;;4999933;28;20227;-80
2022/12/11 04:10:39;;;;;;;36.83;24.40;;;;;;;;;;4995851;28;21895;-79
2022/12/11 04:13:05;;;;;;;36.50;22.93;;;;;;;;;;4996016;28;20655;-79
2022/12/11 04:15:31;;;;;;;36.63;22.77;;;;;;;;;;4995789;28;20188;-80
2022/12/11 04:26:17;;;;;;;39.33;24.00;;;;;;;;;;5005272;28;20179;-79
2022/12/11 04:28:45;;;;;;;39.40;24.30;;;;;;;;;;4999989;28;20195;-80
2022/12/11 04:31:12;;;;;;;38.03;23.43;;;;;;;;;;5003245;28;20214;-79
2022/12/11 04:33:39;;;;;;;38.03;23.07;;;;;;;;;;4984661;28;20225;-79
2022/12/11 04:36:05;;;;;;;40.23;23.23;;;;;;;;;;4998985;28;20675;-80
2022/12/11 04:38:32;;;;;;;35.37;21.57;;;;;;;;;;5003368;28;20199;-80
2022/12/11 04:41:02;;;;;;;34.50;22.60;;;;;;;;;;4971870;28;20198;-80
2022/12/11 04:43:28;;;;;;;35.53;22.17;;;;;;;;;;5006239;28;20212;-79
2022/12/11 04:46:05;;;;;;;34.17;21.37;;;;;;;;;;5000514;28;20191;-80
2022/12/11 04:48:31;;;;;;;38.27;23.97;;;;;;;;;;4999851;28;20338;-79
2022/12/11 04:50:57;;;;;;;39.33;23.83;;;;;;;;;;5004427;28;20226;-80
2022/12/11 04:53:24;;;;;;;34.97;22.67;;;;;;;;;;4990804;28;20183;-79
2022/12/11 04:55:50;;;;;;;36.37;22.60;;;;;;;;;;4983143;28;20179;-80
2022/12/11 04:58:16;;;;;;;39.03;24.20;;;;;;;;;;4975258;28;20186;-79
2022/12/11 05:00:42;;;;;;;34.03;22.37;;;;;;;;;;4985461;28;20306;-80
2022/12/11 05:03:09;;;;;;;39.03;23.60;;;;;;;;;;4999349;28;20601;-79
2022/12/11 05:05:35;;;;;;;38.63;23.07;;;;;;;;;;4995116;28;20188;-79
2022/12/11 05:08:01;;;;;;;37.87;24.20;;;;;;;;;;4995679;28;20176;-79
2022/12/11 05:10:27;;;;;;;37.57;23.43;;;;;;;;;;5001065;28;20298;-79
2022/12/11 05:12:53;;;;;;;40.00;24.13;;;;;;;;;;4998258;28;20195;-79
2022/12/11 05:15:20;;;;;;;37.67;23.67;;;;;;;;;;5000730;28;20180;-79
2022/12/11 05:17:46;;;;;;;44.63;26.50;;;;;;;;;;5001220;28;20251;-79
2022/12/11 05:20:12;;;;;;;39.37;24.83;;;;;;;;;;4996030;28;20215;-79
2022/12/11 05:22:38;;;;;;;40.73;24.77;;;;;;;;;;5018428;28;20189;-79
2022/12/11 05:25:05;;;;;;;37.17;24.00;;;;;;;;;;4992760;28;20218;-79
2022/12/11 05:27:31;;;;;;;38.07;23.23;;;;;;;;;;4998110;28;20663;-79
2022/12/11 05:29:58;;;;;;;39.50;24.90;;;;;;;;;;4993379;28;20222;-79
2022/12/11 05:32:24;;;;;;;43.37;26.10;;;;;;;;;;4999217;28;20186;-79
2022/12/11 05:34:50;;;;;;;38.03;23.80;;;;;;;;;;4995011;28;20860;-79
2022/12/11 05:37:17;;;;;;;40.57;25.57;;;;;;;;;;4994226;28;20242;-79
2022/12/11 05:39:43;;;;;;;38.37;24.90;;;;;;;;;;4999296;28;20215;-79
2022/12/11 05:42:09;;;;;;;37.50;24.13;;;;;;;;;;4999385;28;20555;-79
2022/12/11 05:44:35;;;;;;;39.20;24.67;;;;;;;;;;4998413;28;20187;-79
2022/12/11 05:47:01;;;;;;;37.70;23.77;;;;;;;;;;5003281;28;20193;-79
2022/12/11 05:49:27;;;;;;;38.27;23.47;;;;;;;;;;5000936;28;20215;-79
2022/12/11 05:51:53;;;;;;;39.83;24.83;;;;;;;;;;5001100;28;20172;-79
2022/12/11 05:54:20;;;;;;;37.40;23.20;;;;;;;;;;5001530;28;20187;-79
2022/12/11 05:56:46;;;;;;;40.27;25.47;;;;;;;;;;5000034;28;20190;-80
2022/12/11 05:59:12;;;;;;;37.53;23.77;;;;;;;;;;5000909;28;21093;-79
2022/12/11 06:01:39;;;;;;;36.47;23.63;;;;;;;;;;5001311;28;20807;-79
2022/12/11 06:04:06;;;;;;;43.20;26.30;;;;;;;;;;5002898;28;20670;-79
2022/12/11 06:06:32;;;;;;;42.07;24.90;;;;;;;;;;4993924;28;20608;-79
2022/12/11 06:08:59;;;;;;;42.33;25.73;;;;;;;;;;5001440;28;20208;-79
2022/12/11 06:11:27;;;;;;;43.20;26.30;;;;;;;;;;5000947;28;20210;-78
2022/12/11 06:13:53;;;;;;;41.40;25.67;;;;;;;;;;5003491;28;20655;-78
2022/12/11 06:16:20;;;;;;;45.97;27.40;;;;;;;;;;5002354;28;20422;-78
2022/12/11 06:18:47;;;;;;;47.30;28.50;;;;;;;;;;5001009;28;20171;-79
2022/12/11 06:21:14;;;;;;;41.37;25.50;;;;;;;;;;4996376;28;20183;-78
2022/12/11 06:23:40;;;;;;;45.80;27.77;;;;;;;;;;5002175;28;20427;-78
2022/12/11 06:26:07;;;;;;;43.47;27.20;;;;;;;;;;4985010;28;20266;-79
2022/12/11 06:28:33;;;;;;;40.23;25.43;;;;;;;;;;5000850;28;20885;-79
2022/12/11 06:30:59;;;;;;;46.70;29.40;;;;;;;;;;5001724;28;20477;-79
2022/12/11 06:33:26;;;;;;;44.53;26.90;;;;;;;;;;4982427;28;20462;-78
2022/12/11 06:35:52;;;;;;;43.73;26.43;;;;;;;;;;5001191;28;20180;-78
2022/12/11 06:38:18;;;;;;;43.67;27.87;;;;;;;;;;4991184;28;20934;-78
2022/12/11 06:40:45;;;;;;;45.50;26.30;;;;;;;;;;5003154;28;20211;-78
2022/12/11 06:43:11;;;;;;;44.07;26.50;;;;;;;;;;4998526;28;20246;-79
2022/12/11 06:45:38;;;;;;;44.60;26.50;;;;;;;;;;5004208;28;20181;-78
2022/12/11 06:48:04;;;;;;;45.10;26.97;;;;;;;;;;5000344;28;20497;-78
2022/12/11 06:50:30;;;;;;;43.97;25.63;;;;;;;;;;4999722;28;20960;-78
2022/12/11 06:52:56;;;;;;;41.23;24.17;;;;;;;;;;5000004;28;20237;-78
2022/12/11 06:55:23;;;;;;;46.37;26.50;;;;;;;;;;5017918;28;20218;-78
2022/12/11 06:57:49;;;;;;;49.60;28.00;;;;;;;;;;5000485;28;20464;-79
2022/12/11 07:00:15;;;;;;;45.13;28.27;;;;;;;;;;5000331;28;20231;-79
2022/12/11 07:02:42;;;;;;;42.43;26.33;;;;;;;;;;5001759;28;20192;-79
2022/12/11 07:05:08;;;;;;;44.57;25.30;;;;;;;;;;5002140;28;20438;-79
2022/12/11 07:07:34;;;;;;;43.30;26.07;;;;;;;;;;5004440;28;20180;-79
2022/12/11 07:10:00;;;;;;;42.37;25.57;;;;;;;;;;5001603;28;20493;-79
2022/12/11 07:12:26;;;;;;;43.07;26.07;;;;;;;;;;5002347;28;20183;-79
2022/12/11 07:14:52;;;;;;;45.53;27.33;;;;;;;;;;5003771;28;20658;-79
2022/12/11 07:17:18;;;;;;;43.83;26.70;;;;;;;;;;4980102;28;20450;-79
2022/12/11 07:19:45;;;;;;;45.07;26.83;;;;;;;;;;5000659;28;20631;-79
2022/12/11 07:22:11;;;;;;;48.07;27.90;;;;;;;;;;5000966;28;20267;-79
2022/12/11 07:24:37;;;;;;;47.03;27.70;;;;;;;;;;5004450;28;20206;-79
2022/12/11 07:27:04;;;;;;;41.10;24.60;;;;;;;;;;4999408;28;20591;-79
2022/12/11 07:29:30;;;;;;;43.23;26.70;;;;;;;;;;5000608;28;20301;-78
2022/12/11 07:31:56;;;;;;;43.70;25.77;;;;;;;;;;4997692;28;20267;-79
2022/12/11 07:34:22;;;;;;;42.70;25.90;;;;;;;;;;4999095;28;20990;-79
2022/12/11 07:36:48;;;;;;;45.80;27.60;;;;;;;;;;5000605;28;20198;-79
2022/12/11 07:39:14;;;;;;;46.63;26.70;;;;;;;;;;4975655;28;20474;-78
2022/12/11 07:41:41;;;;;;;50.07;27.83;;;;;;;;;;4999818;28;20186;-79
2022/12/11 07:44:10;;;;;;;46.77;27.30;;;;;;;;;;5001390;28;20183;-79
2022/12/11 07:46:37;;;;;;;56.47;31.73;;;;;;;;;;4997425;28;20179;-79
2022/12/11 07:49:04;;;;;;;53.57;29.17;;;;;;;;;;4998336;28;20203;-79
2022/12/11 07:51:31;;;;;;;55.90;28.67;;;;;;;;;;5000983;28;20202;-79
2022/12/11 07:53:59;;;;;;;49.03;27.13;;;;;;;;;;5000794;28;20190;-78
2022/12/11 07:56:26;;;;;;;55.43;27.83;;;;;;;;;;4998593;28;20560;-78
2022/12/11 07:58:53;;;;;;;48.33;26.03;;;;;;;;;;5000070;28;20206;-78
2022/12/11 08:01:24;;;;;;;44.23;25.67;;;;;;;;;;4999451;28;20178;-78
2022/12/11 08:03:51;;;;;;;46.53;26.57;;;;;;;;;;4999262;28;20528;-78
2022/12/11 08:06:17;;;;;;;47.93;26.30;;;;;;;;;;4994522;28;20183;-78
2022/12/11 08:08:44;;;;;;;47.23;26.73;;;;;;;;;;5001827;28;20198;-78
2022/12/11 08:11:11;;;;;;;47.17;26.67;;;;;;;;;;4998110;28;20222;-79
2022/12/11 08:13:37;;;;;;;49.90;26.77;;;;;;;;;;5000563;28;20172;-78
2022/12/11 08:16:05;;;;;;;46.70;26.13;;;;;;;;;;4997863;28;20207;-79
2022/12/11 08:18:32;;;;;;;45.97;25.77;;;;;;;;;;4999276;28;20945;-78
2022/12/11 08:20:58;;;;;;;46.17;26.17;;;;;;;;;;4996888;28;20246;-79
2022/12/11 08:23:24;;;;;;;43.63;25.77;;;;;;;;;;4996028;28;20182;-78
2022/12/11 08:25:51;;;;;;;50.10;27.50;;;;;;;;;;4996019;28;20648;-79
2022/12/11 08:28:17;;;;;;;51.53;26.67;;;;;;;;;;5001964;28;20191;-78
2022/12/11 08:30:43;;;;;;;50.40;26.90;;;;;;;;;;4995329;28;20219;-79
2022/12/11 08:33:09;;;;;;;51.60;28.77;;;;;;;;;;4997636;28;20312;-79
2022/12/11 08:35:38;;;;;;;46.57;25.70;;;;;;;;;;5002197;28;20175;-79
2022/12/11 08:38:04;;;;;;;46.50;26.40;;;;;;;;;;5001862;28;20303;-79
2022/12/11 08:40:31;;;;;;;42.27;24.10;;;;;;;;;;5002214;28;20200;-79
2022/12/11 08:42:57;;;;;;;46.90;26.43;;;;;;;;;;5002318;28;20183;-79
2022/12/11 08:45:23;;;;;;;48.20;26.23;;;;;;;;;;4998989;28;20270;-77
2022/12/11 08:47:49;;;;;;;45.77;25.47;;;;;;;;;;4994266;28;20207;-79
2022/12/11 08:50:15;;;;;;;47.30;26.00;;;;;;;;;;4995757;28;20226;-80
2022/12/11 08:52:42;;;;;;;45.87;25.70;;;;;;;;;;4998008;28;20214;-83
2022/12/11 08:55:09;;;;;;;47.77;26.97;;;;;;;;;;4970600;28;20202;-78
2022/12/11 08:57:35;;;;;;;44.80;23.97;;;;;;;;;;4996767;28;20194;-77
2022/12/11 09:00:02;;;;;;;52.73;26.53;;;;;;;;;;4997188;28;20207;-78
2022/12/11 09:02:28;;;;;;;46.63;24.67;;;;;;;;;;5001518;28;20602;-77
2022/12/11 09:04:54;;;;;;;48.17;25.40;;;;;;;;;;4997615;28;20724;-79
2022/12/11 09:07:20;;;;;;;48.40;25.93;;;;;;;;;;4999243;28;20192;-79
2022/12/11 09:09:46;;;;;;;47.33;25.67;;;;;;;;;;4995271;28;20222;-81
2022/12/11 09:12:12;;;;;;;44.47;25.10;;;;;;;;;;5000504;28;20183;-78
2022/12/11 09:14:38;;;;;;;54.73;26.83;;;;;;;;;;4999661;28;20167;-79
2022/12/11 09:17:05;;;;;;;45.30;24.67;;;;;;;;;;5000187;28;20203;-78
2022/12/11 09:19:31;;;;;;;44.10;24.13;;;;;;;;;;4998955;28;20216;-80
2022/12/11 09:21:57;;;;;;;46.53;25.90;;;;;;;;;;4998401;28;20200;-78
2022/12/11 09:24:23;;;;;;;49.87;26.63;;;;;;;;;;4999411;28;20190;-79
2022/12/11 09:26:49;;;;;;;46.63;26.13;;;;;;;;;;4995519;28;20184;-82
2022/12/11 09:29:16;;;;;;;50.23;26.30;;;;;;;;;;4991256;28;20684;-84
2022/12/11 09:31:42;;;;;;;52.57;25.13;;;;;;;;;;5005747;28;20279;-85
2022/12/11 09:34:10;;;;;;;51.10;25.60;;;;;;;;;;4999519;28;20238;-84
2022/12/11 09:36:38;;;;;;;51.27;26.83;;;;;;;;;;4984997;28;20265;-85
2022/12/11 09:39:04;;;;;;;48.53;25.97;;;;;;;;;;4980271;28;20219;-85
2022/12/11 09:41:37;;;;;;;46.83;25.40;;;;;;;;;;5000163;28;20188;-84
2022/12/11 09:44:03;;;;;;;53.87;27.57;;;;;;;;;;4994421;28;20192;-84
2022/12/11 09:46:30;;;;;;;52.37;26.70;;;;;;;;;;4983791;28;20205;-84
2022/12/11 09:48:57;;;;;;;49.67;25.37;;;;;;;;;;4966651;28;20215;-84
2022/12/11 09:51:43;;;;;;;51.73;25.80;;;;;;;;;;4988831;28;20687;-84
2022/12/11 09:54:12;;;;;;;46.77;24.40;;;;;;;;;;4983826;28;20198;-84
2022/12/11 09:56:51;;;;;;;45.70;23.50;;;;;;;;;;5004459;28;20191;-85
2022/12/11 09:59:23;;;;;;;52.13;26.20;;;;;;;;;;4971334;28;20247;-83
2022/12/11 10:01:58;;;;;;;51.00;24.90;;;;;;;;;;4990107;28;20191;-80
2022/12/11 10:04:25;;;;;;;48.13;24.53;;;;;;;;;;4976469;28;20179;-83
2022/12/11 10:07:09;;;;;;;51.00;25.17;;;;;;;;;;5004692;28;20238;-83
2022/12/11 10:09:38;;;;;;;51.10;26.47;;;;;;;;;;4988734;28;20219;-84
2022/12/11 10:12:22;;;;;;;50.70;25.57;;;;;;;;;;5005873;28;20275;-83
2022/12/11 10:14:55;;;;;;;47.27;25.13;;;;;;;;;;5003643;28;20779;-83
2022/12/11 10:17:31;;;;;;;51.07;25.27;;;;;;;;;;5002180;28;21167;-83
2022/12/11 10:20:02;;;;;;;51.73;24.30;;;;;;;;;;5002794;28;20206;-83
2022/12/11 10:22:30;;;;;;;51.73;26.83;;;;;;;;;;5005298;28;20261;-83
2022/12/11 10:25:01;;;;;;;52.57;30.33;;;;;;;;;;5003425;28;20180;-84
2022/12/11 10:27:30;;;;;;;58.33;29.60;;;;;;;;;;5006127;28;20183;-83
2022/12/11 10:30:15;;;;;;;50.13;27.30;;;;;;;;;;4978679;28;20406;-83
2022/12/11 10:32:49;;;;;;;48.90;26.03;;;;;;;;;;4987955;28;20261;-84
2022/12/11 10:35:22;;;;;;;55.40;28.33;;;;;;;;;;5006932;28;20241;-83
2022/12/11 10:37:49;;;;;;;47.60;25.23;;;;;;;;;;4999135;28;20217;-84
2022/12/11 10:40:16;;;;;;;48.10;25.27;;;;;;;;;;5008441;28;20323;-83
2022/12/11 10:42:51;;;;;;;52.50;27.13;;;;;;;;;;4999582;28;20709;-79
2022/12/11 10:45:17;;;;;;;45.07;24.27;;;;;;;;;;4993503;28;20257;-79
2022/12/11 10:47:43;;;;;;;49.90;26.30;;;;;;;;;;4999095;28;20194;-79
2022/12/11 10:50:21;;;;;;;50.87;27.27;;;;;;;;;;4985949;28;20218;-78
2022/12/11 10:52:48;;;;;;;51.70;26.40;;;;;;;;;;5000047;28;20194;-83
2022/12/11 10:55:17;;;;;;;49.03;24.80;;;;;;;;;;5001976;28;20233;-75
2022/12/11 10:57:43;;;;;;;46.57;25.23;;;;;;;;;;5003465;28;20540;-75
2022/12/11 11:00:28;;;;;;;44.87;25.27;;;;;;;;;;5004567;28;20203;-75
2022/12/11 11:02:54;;;;;;;45.97;24.90;;;;;;;;;;4996137;28;20267;-78
2022/12/11 11:05:30;;;;;;;48.00;24.43;;;;;;;;;;4997308;28;20215;-75
2022/12/11 11:08:12;;;;;;;45.17;24.00;;;;;;;;;;4998281;28;20209;-77
2022/12/11 11:10:48;;;;;;;46.87;24.50;;;;;;;;;;5005299;28;20207;-76
2022/12/11 11:13:14;;;;;;;44.63;24.10;;;;;;;;;;4996148;28;20853;-77
2022/12/11 11:15:40;;;;;;;44.17;23.87;;;;;;;;;;4992428;28;20195;-76
2022/12/11 11:18:12;;;;;;;39.70;22.53;;;;;;;;;;5000115;28;20182;-76
2022/12/11 11:20:43;;;;;;;50.57;28.80;;;;;;;;;;4996566;28;20743;-73
2022/12/11 11:23:12;;;;;;;50.13;25.80;;;;;;;;;;4997676;28;20183;-74
2022/12/11 11:25:39;;;;;;;45.63;26.40;;;;;;;;;;5000405;28;20190;-76
2022/12/11 11:28:18;;;;;;;42.33;24.13;;;;;;;;;;4998654;28;20647;-76
2022/12/11 11:30:54;;;;;;;43.40;24.67;;;;;;;;;;4998016;28;20707;-76
2022/12/11 11:33:22;;;;;;;45.03;24.43;;;;;;;;;;4998339;28;20183;-78
2022/12/11 11:36:04;;;;;;;43.07;23.60;;;;;;;;;;4997481;28;20183;-75
2022/12/11 11:38:30;;;;;;;43.43;24.17;;;;;;;;;;5000973;28;20226;-75
2022/12/11 11:41:12;;;;;;;47.87;25.93;;;;;;;;;;5000048;28;20298;-77
2022/12/11 11:43:38;;;;;;;47.83;24.67;;;;;;;;;;4999275;28;20209;-77
2022/12/11 11:46:07;;;;;;;46.87;25.40;;;;;;;;;;4997004;28;20184;-74
2022/12/11 11:48:36;;;;;;;46.70;25.53;;;;;;;;;;4998104;28;20613;-76
2022/12/11 11:51:26;;;;;;;41.70;24.80;;;;;;;;;;5001688;28;20207;-78
2022/12/11 11:53:54;;;;;;;43.83;23.63;;;;;;;;;;4988244;28;20238;-75
2022/12/11 11:56:21;;;;;;;45.10;26.03;;;;;;;;;;4999539;28;20678;-76
2022/12/11 11:58:50;;;;;;;44.73;24.60;;;;;;;;;;5002140;28;20208;-75
2022/12/11 12:01:18;;;;;;;47.53;25.00;;;;;;;;;;4998133;28;20547;-77
2022/12/11 12:03:47;;;;;;;42.37;24.00;;;;;;;;;;4996324;28;20267;-76
2022/12/11 12:06:31;;;;;;;45.50;24.73;;;;;;;;;;4996810;28;20731;-78
2022/12/11 12:08:58;;;;;;;43.90;24.80;;;;;;;;;;5001077;28;20232;-77
2022/12/11 12:11:33;;;;;;;44.60;24.70;;;;;;;;;;5001556;28;20637;-76
2022/12/11 12:14:18;;;;;;;43.30;24.53;;;;;;;;;;4998262;28;20164;-75
2022/12/11 12:16:50;;;;;;;43.93;25.10;;;;;;;;;;4999738;28;20195;-78
2022/12/11 12:19:31;;;;;;;42.37;22.77;;;;;;;;;;4999650;28;20279;-79
2022/12/11 12:22:00;;;;;;;38.73;22.20;;;;;;;;;;5000798;28;20726;-76
2022/12/11 12:24:59;;;;;;;41.73;23.20;;;;;;;;;;5003034;28;20286;-75
2022/12/11 12:27:34;;;;;;;44.17;24.53;;;;;;;;;;4978431;28;20195;-76
2022/12/11 12:30:05;;;;;;;41.03;23.87;;;;;;;;;;5000186;28;20642;-77
2022/12/11 12:32:31;;;;;;;45.67;23.97;;;;;;;;;;4996819;28;20190;-78
2022/12/11 12:35:00;;;;;;;41.73;23.93;;;;;;;;;;4997928;28;20183;-76
2022/12/11 12:37:34;;;;;;;49.53;26.77;;;;;;;;;;5001728;28;20184;-77
2022/12/11 12:40:01;;;;;;;38.13;22.57;;;;;;;;;;4998544;28;20212;-81
2022/12/11 12:42:27;;;;;;;44.00;24.10;;;;;;;;;;4998812;28;20191;-80
2022/12/11 12:44:53;;;;;;;41.27;23.83;;;;;;;;;;5003655;28;20202;-79
2022/12/11 12:47:19;;;;;;;43.97;24.27;;;;;;;;;;4998071;28;20714;-76
2022/12/11 12:49:47;;;;;;;44.27;24.70;;;;;;;;;;4995299;28;20226;-73
2022/12/11 12:52:17;;;;;;;38.50;21.83;;;;;;;;;;4993062;28;20231;-74
2022/12/11 12:55:12;;;;;;;43.03;23.60;;;;;;;;;;4992391;28;20206;-74
2022/12/11 12:57:32;;;;;;;41.27;23.80;;;;;;;;;;4993778;28;20179;-77
2022/12/11 12:59:59;;;;;;;45.73;25.13;;;;;;;;;;4992980;28;20231;-76
2022/12/11 13:02:25;;;;;;;43.93;25.10;;;;;;;;;;4993894;28;20220;-76
2022/12/11 13:04:57;;;;;;;42.23;23.40;;;;;;;;;;4995515;28;20189;-76
2022/12/11 13:07:27;;;;;;;45.20;25.37;;;;;;;;;;4986819;28;20222;-76
2022/12/11 13:09:58;;;;;;;40.27;23.30;;;;;;;;;;4995855;28;20246;-76
2022/12/11 13:12:32;;;;;;;43.17;24.60;;;;;;;;;;4993743;28;20625;-76
2022/12/11 13:14:59;;;;;;;45.33;24.50;;;;;;;;;;4979355;28;20207;-77
2022/12/11 13:17:37;;;;;;;44.23;25.87;;;;;;;;;;4994471;28;20212;-76
2022/12/11 13:20:10;;;;;;;48.33;25.93;;;;;;;;;;4993777;28;20702;-76
2022/12/11 13:22:46;;;;;;;41.10;23.17;;;;;;;;;;4993692;28;20187;-76
2022/12/11 13:25:21;;;;;;;44.80;24.13;;;;;;;;;;4992460;28;20187;-78
2022/12/11 13:27:48;;;;;;;41.03;23.20;;;;;;;;;;4997380;28;20260;-76
2022/12/11 13:30:14;;;;;;;40.90;22.70;;;;;;;;;;4993334;28;20203;-77
2022/12/11 13:32:41;;;;;;;40.53;23.03;;;;;;;;;;4988795;28;20187;-76
2022/12/11 13:35:14;;;;;;;46.13;25.10;;;;;;;;;;4988413;28;21324;-77
2022/12/11 13:37:44;;;;;;;48.13;26.47;;;;;;;;;;4979468;28;20217;-76
2022/12/11 13:40:22;;;;;;;42.93;24.53;;;;;;;;;;4989321;28;20203;-77
2022/12/11 13:42:48;;;;;;;49.00;26.17;;;;;;;;;;5002537;28;20222;-77
2022/12/11 13:45:21;;;;;;;46.30;25.50;;;;;;;;;;4989750;28;20237;-76
2022/12/11 13:47:47;;;;;;;42.27;24.93;;;;;;;;;;4992085;28;20561;-76
2022/12/11 13:50:17;;;;;;;44.87;25.93;;;;;;;;;;4992027;28;20230;-76
2022/12/11 13:52:52;;;;;;;46.63;25.33;;;;;;;;;;4992452;28;20198;-76
2022/12/11 13:55:25;;;;;;;45.27;25.07;;;;;;;;;;4993398;28;20179;-77
2022/12/11 13:57:51;;;;;;;44.37;24.07;;;;;;;;;;4994705;28;20184;-76
2022/12/11 14:00:22;;;;;;;47.13;25.97;;;;;;;;;;4990708;28;20206;-79
2022/12/11 14:02:49;;;;;;;48.00;26.30;;;;;;;;;;4983508;28;20717;-77
2022/12/11 14:05:16;;;;;;;43.67;25.23;;;;;;;;;;4998066;28;20249;-75
2022/12/11 14:07:42;;;;;;;42.90;24.60;;;;;;;;;;4997404;28;20183;-76
2022/12/11 14:10:14;;;;;;;41.20;22.50;;;;;;;;;;4996082;28;20307;-75
2022/12/11 14:12:52;;;;;;;52.73;26.17;;;;;;;;;;4992632;28;20238;-80
2022/12/11 14:15:19;;;;;;;42.60;23.63;;;;;;;;;;4998820;28;20249;-75
2022/12/11 14:17:45;;;;;;;42.73;25.53;;;;;;;;;;4998546;28;20314;-77
2022/12/11 14:20:20;;;;;;;40.70;23.83;;;;;;;;;;4996100;28;20223;-77
2022/12/11 14:22:46;;;;;;;44.17;25.10;;;;;;;;;;4997267;28;20626;-77
2022/12/11 14:25:18;;;;;;;41.13;23.57;;;;;;;;;;4998756;28;20757;-75
2022/12/11 14:27:49;;;;;;;44.30;24.67;;;;;;;;;;4998105;28;20713;-74
2022/12/11 14:30:23;;;;;;;43.93;25.13;;;;;;;;;;4998678;28;20246;-75
2022/12/11 14:32:51;;;;;;;47.13;25.97;;;;;;;;;;4996793;28;20191;-76